sensor_id;sensor_type;location;lat;lon;timestamp;temperature;humidity
41058;DHT22;66768;48.884;2.258;2023-03-17T00:00:11;13.40;94.50
41058;DHT22;66768;48.884;2.258;2023-03-17T00:02:41;13.40;94.40
41058;DHT22;66768;48.884;2.258;2023-03-17T00:05:19;13.50;94.50
41058;DHT22;66768;48.884;2.258;2023-03-17T00:07:47;13.40;94.40
41058;DHT22;66768;48.884;2.258;2023-03-17T00:10:17;13.40;94.40
41058;DHT22;66768;48.884;2.258;2023-03-17T00:12:44;13.50;94.40
41058;DHT22;66768;48.884;2.258;2023-03-17T00:15:12;13.40;94.40
41058;DHT22;66768;48.884;2.258;2023-03-17T00:17:42;13.40;94.40
41058;DHT22;66768;48.884;2.258;2023-03-17T00:20:21;13.40;94.40
41058;DHT22;66768;48.884;2.258;2023-03-17T00:22:48;13.40;94.60
41058;DHT22;66768;48.884;2.258;2023-03-17T00:25:21;13.40;94.50
41058;DHT22;66768;48.884;2.258;2023-03-17T00:27:49;13.30;94.50
41058;DHT22;66768;48.884;2.258;2023-03-17T00:30:17;13.30;94.40
41058;DHT22;66768;48.884;2.258;2023-03-17T00:32:45;13.30;94.40
41058;DHT22;66768;48.884;2.258;2023-03-17T00:35:20;13.30;94.50
41058;DHT22;66768;48.884;2.258;2023-03-17T00:37:49;13.30;94.50
41058;DHT22;66768;48.884;2.258;2023-03-17T00:40:19;13.30;94.60
41058;DHT22;66768;48.884;2.258;2023-03-17T00:42:47;13.30;94.60
41058;DHT22;66768;48.884;2.258;2023-03-17T00:45:14;13.30;94.60
41058;DHT22;66768;48.884;2.258;2023-03-17T00:47:42;13.30;94.60
41058;DHT22;66768;48.884;2.258;2023-03-17T00:50:14;13.30;94.60
41058;DHT22;66768;48.884;2.258;2023-03-17T00:52:41;13.30;94.60
41058;DHT22;66768;48.884;2.258;2023-03-17T00:55:09;13.30;94.70
41058;DHT22;66768;48.884;2.258;2023-03-17T00:57:37;13.30;95.00
41058;DHT22;66768;48.884;2.258;2023-03-17T01:00:15;13.20;94.80
41058;DHT22;66768;48.884;2.258;2023-03-17T01:02:43;13.20;94.90
41058;DHT22;66768;48.884;2.258;2023-03-17T01:05:12;13.20;94.90
41058;DHT22;66768;48.884;2.258;2023-03-17T01:07:39;13.20;95.00
41058;DHT22;66768;48.884;2.258;2023-03-17T01:10:12;13.10;94.90
41058;DHT22;66768;48.884;2.258;2023-03-17T01:12:41;13.20;95.00
41058;DHT22;66768;48.884;2.258;2023-03-17T01:15:08;13.20;95.00
41058;DHT22;66768;48.884;2.258;2023-03-17T01:17:35;13.10;95.00
41058;DHT22;66768;48.884;2.258;2023-03-17T01:20:04;13.10;95.00
41058;DHT22;66768;48.884;2.258;2023-03-17T01:22:33;13.10;95.00
41058;DHT22;66768;48.884;2.258;2023-03-17T01:25:00;13.10;95.00
41058;DHT22;66768;48.884;2.258;2023-03-17T01:27:33;13.10;95.00
41058;DHT22;66768;48.884;2.258;2023-03-17T01:30:01;13.10;95.00
41058;DHT22;66768;48.884;2.258;2023-03-17T01:32:28;13.10;95.10
41058;DHT22;66768;48.884;2.258;2023-03-17T01:34:55;13.10;95.10
41058;DHT22;66768;48.884;2.258;2023-03-17T01:37:22;13.10;95.10
41058;DHT22;66768;48.884;2.258;2023-03-17T01:39:51;13.10;95.20
41058;DHT22;66768;48.884;2.258;2023-03-17T01:42:18;13.10;95.30
41058;DHT22;66768;48.884;2.258;2023-03-17T01:45:00;13.10;95.30
41058;DHT22;66768;48.884;2.258;2023-03-17T01:47:27;13.10;95.30
41058;DHT22;66768;48.884;2.258;2023-03-17T01:49:57;13.00;95.30
41058;DHT22;66768;48.884;2.258;2023-03-17T01:52:26;13.10;95.40
41058;DHT22;66768;48.884;2.258;2023-03-17T01:54:57;13.00;95.40
41058;DHT22;66768;48.884;2.258;2023-03-17T01:57:28;13.00;95.50
41058;DHT22;66768;48.884;2.258;2023-03-17T02:00:00;13.00;95.60
41058;DHT22;66768;48.884;2.258;2023-03-17T02:02:31;13.00;95.60
41058;DHT22;66768;48.884;2.258;2023-03-17T02:05:00;13.00;95.70
41058;DHT22;66768;48.884;2.258;2023-03-17T02:07:28;13.00;95.80
41058;DHT22;66768;48.884;2.258;2023-03-17T02:09:57;13.00;95.70
41058;DHT22;66768;48.884;2.258;2023-03-17T02:12:26;13.00;95.80
41058;DHT22;66768;48.884;2.258;2023-03-17T02:14:55;12.90;95.70
41058;DHT22;66768;48.884;2.258;2023-03-17T02:17:24;12.90;95.70
41058;DHT22;66768;48.884;2.258;2023-03-17T02:19:51;12.90;95.80
41058;DHT22;66768;48.884;2.258;2023-03-17T02:22:20;12.90;95.80
41058;DHT22;66768;48.884;2.258;2023-03-17T02:24:50;13.00;95.80
41058;DHT22;66768;48.884;2.258;2023-03-17T02:27:20;12.90;95.80
41058;DHT22;66768;48.884;2.258;2023-03-17T02:29:48;12.90;95.80
41058;DHT22;66768;48.884;2.258;2023-03-17T02:32:17;12.90;95.80
41058;DHT22;66768;48.884;2.258;2023-03-17T02:34:47;12.90;95.80
41058;DHT22;66768;48.884;2.258;2023-03-17T02:37:14;12.90;95.90
41058;DHT22;66768;48.884;2.258;2023-03-17T02:39:43;12.90;95.90
41058;DHT22;66768;48.884;2.258;2023-03-17T02:42:12;12.90;95.90
41058;DHT22;66768;48.884;2.258;2023-03-17T02:44:39;12.90;95.90
41058;DHT22;66768;48.884;2.258;2023-03-17T02:47:06;12.90;96.00
41058;DHT22;66768;48.884;2.258;2023-03-17T02:49:34;12.90;96.00
41058;DHT22;66768;48.884;2.258;2023-03-17T02:52:02;12.90;96.00
41058;DHT22;66768;48.884;2.258;2023-03-17T02:54:28;12.90;96.00
41058;DHT22;66768;48.884;2.258;2023-03-17T02:56:57;12.90;96.00
41058;DHT22;66768;48.884;2.258;2023-03-17T02:59:24;12.80;96.10
41058;DHT22;66768;48.884;2.258;2023-03-17T03:01:51;12.80;96.00
41058;DHT22;66768;48.884;2.258;2023-03-17T03:04:19;12.80;96.20
41058;DHT22;66768;48.884;2.258;2023-03-17T03:06:46;12.80;96.20
41058;DHT22;66768;48.884;2.258;2023-03-17T03:09:14;12.90;96.20
41058;DHT22;66768;48.884;2.258;2023-03-17T03:11:42;12.90;96.20
41058;DHT22;66768;48.884;2.258;2023-03-17T03:14:11;12.90;96.20
41058;DHT22;66768;48.884;2.258;2023-03-17T03:16:38;12.90;96.30
41058;DHT22;66768;48.884;2.258;2023-03-17T03:19:05;12.90;96.30
41058;DHT22;66768;48.884;2.258;2023-03-17T03:21:32;12.90;96.20
41058;DHT22;66768;48.884;2.258;2023-03-17T03:23:59;12.90;96.40
41058;DHT22;66768;48.884;2.258;2023-03-17T03:26:26;12.90;96.30
41058;DHT22;66768;48.884;2.258;2023-03-17T03:28:53;13.00;96.40
41058;DHT22;66768;48.884;2.258;2023-03-17T03:31:23;13.00;96.40
41058;DHT22;66768;48.884;2.258;2023-03-17T03:33:50;13.00;96.50
41058;DHT22;66768;48.884;2.258;2023-03-17T03:36:17;12.90;96.50
41058;DHT22;66768;48.884;2.258;2023-03-17T03:38:44;12.90;96.60
41058;DHT22;66768;48.884;2.258;2023-03-17T03:41:11;12.90;96.60
41058;DHT22;66768;48.884;2.258;2023-03-17T03:43:38;12.90;96.50
41058;DHT22;66768;48.884;2.258;2023-03-17T03:46:05;12.90;96.50
41058;DHT22;66768;48.884;2.258;2023-03-17T03:48:33;13.00;96.50
41058;DHT22;66768;48.884;2.258;2023-03-17T03:51:01;13.00;96.50
41058;DHT22;66768;48.884;2.258;2023-03-17T03:53:28;13.00;96.30
41058;DHT22;66768;48.884;2.258;2023-03-17T03:55:55;12.90;96.30
41058;DHT22;66768;48.884;2.258;2023-03-17T03:58:22;13.00;96.30
41058;DHT22;66768;48.884;2.258;2023-03-17T04:00:49;13.00;96.40
41058;DHT22;66768;48.884;2.258;2023-03-17T04:03:17;13.00;96.30
41058;DHT22;66768;48.884;2.258;2023-03-17T04:05:45;13.00;96.30
41058;DHT22;66768;48.884;2.258;2023-03-17T04:08:12;13.00;96.30
41058;DHT22;66768;48.884;2.258;2023-03-17T04:10:39;13.00;96.30
41058;DHT22;66768;48.884;2.258;2023-03-17T04:13:06;13.00;96.30
41058;DHT22;66768;48.884;2.258;2023-03-17T04:15:33;13.00;96.20
41058;DHT22;66768;48.884;2.258;2023-03-17T04:17:59;13.00;96.40
41058;DHT22;66768;48.884;2.258;2023-03-17T04:20:27;13.00;96.20
41058;DHT22;66768;48.884;2.258;2023-03-17T04:22:55;13.00;96.10
41058;DHT22;66768;48.884;2.258;2023-03-17T04:25:22;13.00;96.20
41058;DHT22;66768;48.884;2.258;2023-03-17T04:27:48;13.00;96.20
41058;DHT22;66768;48.884;2.258;2023-03-17T04:30:16;12.90;96.30
41058;DHT22;66768;48.884;2.258;2023-03-17T04:32:43;12.90;96.30
41058;DHT22;66768;48.884;2.258;2023-03-17T04:35:12;12.90;96.40
41058;DHT22;66768;48.884;2.258;2023-03-17T04:37:39;12.90;96.40
41058;DHT22;66768;48.884;2.258;2023-03-17T04:40:09;12.90;96.40
41058;DHT22;66768;48.884;2.258;2023-03-17T04:42:36;12.90;96.40
41058;DHT22;66768;48.884;2.258;2023-03-17T04:45:04;12.90;96.50
41058;DHT22;66768;48.884;2.258;2023-03-17T04:47:31;12.90;96.40
41058;DHT22;66768;48.884;2.258;2023-03-17T04:49:59;12.90;96.40
41058;DHT22;66768;48.884;2.258;2023-03-17T04:52:26;13.00;96.30
41058;DHT22;66768;48.884;2.258;2023-03-17T04:54:53;13.00;96.30
41058;DHT22;66768;48.884;2.258;2023-03-17T04:57:21;13.00;96.30
41058;DHT22;66768;48.884;2.258;2023-03-17T04:59:49;13.00;96.30
41058;DHT22;66768;48.884;2.258;2023-03-17T05:02:16;13.00;96.30
41058;DHT22;66768;48.884;2.258;2023-03-17T05:04:43;13.00;96.30
41058;DHT22;66768;48.884;2.258;2023-03-17T05:07:10;13.00;96.40
41058;DHT22;66768;48.884;2.258;2023-03-17T05:09:37;13.00;96.30
41058;DHT22;66768;48.884;2.258;2023-03-17T05:12:05;13.00;96.40
41058;DHT22;66768;48.884;2.258;2023-03-17T05:14:34;13.00;96.40
41058;DHT22;66768;48.884;2.258;2023-03-17T05:17:01;13.00;96.50
41058;DHT22;66768;48.884;2.258;2023-03-17T05:19:28;13.00;96.50
41058;DHT22;66768;48.884;2.258;2023-03-17T05:21:55;12.90;96.50
41058;DHT22;66768;48.884;2.258;2023-03-17T05:24:22;12.90;96.60
41058;DHT22;66768;48.884;2.258;2023-03-17T05:26:49;12.90;96.60
41058;DHT22;66768;48.884;2.258;2023-03-17T05:29:16;12.90;96.60
41058;DHT22;66768;48.884;2.258;2023-03-17T05:31:44;13.00;96.70
41058;DHT22;66768;48.884;2.258;2023-03-17T05:34:11;12.90;96.70
41058;DHT22;66768;48.884;2.258;2023-03-17T05:36:39;12.90;96.60
41058;DHT22;66768;48.884;2.258;2023-03-17T05:39:06;12.90;96.60
41058;DHT22;66768;48.884;2.258;2023-03-17T05:41:33;12.90;96.60
41058;DHT22;66768;48.884;2.258;2023-03-17T05:44:00;12.90;96.60
41058;DHT22;66768;48.884;2.258;2023-03-17T05:46:27;13.00;96.70
41058;DHT22;66768;48.884;2.258;2023-03-17T05:48:55;12.90;96.70
41058;DHT22;66768;48.884;2.258;2023-03-17T05:51:22;12.90;96.70
41058;DHT22;66768;48.884;2.258;2023-03-17T05:53:49;12.90;96.70
41058;DHT22;66768;48.884;2.258;2023-03-17T05:56:16;12.90;96.70
41058;DHT22;66768;48.884;2.258;2023-03-17T05:58:43;12.90;96.70
41058;DHT22;66768;48.884;2.258;2023-03-17T06:01:10;12.90;96.70
41058;DHT22;66768;48.884;2.258;2023-03-17T06:03:37;12.90;96.80
41058;DHT22;66768;48.884;2.258;2023-03-17T06:06:05;12.90;96.80
41058;DHT22;66768;48.884;2.258;2023-03-17T06:08:33;12.90;96.80
41058;DHT22;66768;48.884;2.258;2023-03-17T06:11:00;12.90;96.80
41058;DHT22;66768;48.884;2.258;2023-03-17T06:13:27;12.90;96.80
41058;DHT22;66768;48.884;2.258;2023-03-17T06:15:54;12.90;96.90
41058;DHT22;66768;48.884;2.258;2023-03-17T06:18:21;12.90;96.90
41058;DHT22;66768;48.884;2.258;2023-03-17T06:20:48;12.90;96.90
41058;DHT22;66768;48.884;2.258;2023-03-17T06:23:17;12.90;96.80
41058;DHT22;66768;48.884;2.258;2023-03-17T06:25:44;12.90;96.90
41058;DHT22;66768;48.884;2.258;2023-03-17T06:28:12;12.90;96.90
41058;DHT22;66768;48.884;2.258;2023-03-17T06:30:39;12.90;96.90
41058;DHT22;66768;48.884;2.258;2023-03-17T06:33:06;12.90;96.90
41058;DHT22;66768;48.884;2.258;2023-03-17T06:35:33;12.90;96.90
41058;DHT22;66768;48.884;2.258;2023-03-17T06:38:00;13.00;96.90
41058;DHT22;66768;48.884;2.258;2023-03-17T06:40:29;12.90;96.90
41058;DHT22;66768;48.884;2.258;2023-03-17T06:42:56;12.90;96.80
41058;DHT22;66768;48.884;2.258;2023-03-17T06:45:23;13.00;96.90
41058;DHT22;66768;48.884;2.258;2023-03-17T06:47:50;13.00;96.90
41058;DHT22;66768;48.884;2.258;2023-03-17T06:50:17;13.00;96.90
41058;DHT22;66768;48.884;2.258;2023-03-17T06:52:44;13.00;96.90
41058;DHT22;66768;48.884;2.258;2023-03-17T06:55:11;13.00;96.90
41058;DHT22;66768;48.884;2.258;2023-03-17T06:57:40;13.00;96.90
41058;DHT22;66768;48.884;2.258;2023-03-17T07:00:08;13.00;96.90
41058;DHT22;66768;48.884;2.258;2023-03-17T07:02:37;13.10;96.90
41058;DHT22;66768;48.884;2.258;2023-03-17T07:05:04;13.10;97.00
41058;DHT22;66768;48.884;2.258;2023-03-17T07:07:32;13.10;96.90
41058;DHT22;66768;48.884;2.258;2023-03-17T07:10:00;13.10;96.90
41058;DHT22;66768;48.884;2.258;2023-03-17T07:12:27;13.10;96.90
41058;DHT22;66768;48.884;2.258;2023-03-17T07:14:55;13.10;96.90
41058;DHT22;66768;48.884;2.258;2023-03-17T07:17:22;13.20;97.00
41058;DHT22;66768;48.884;2.258;2023-03-17T07:19:49;13.20;97.10
41058;DHT22;66768;48.884;2.258;2023-03-17T07:22:16;13.20;97.10
41058;DHT22;66768;48.884;2.258;2023-03-17T07:24:43;13.30;96.90
41058;DHT22;66768;48.884;2.258;2023-03-17T07:27:11;13.30;96.90
41058;DHT22;66768;48.884;2.258;2023-03-17T07:29:38;13.30;96.80
41058;DHT22;66768;48.884;2.258;2023-03-17T07:32:07;13.30;96.80
41058;DHT22;66768;48.884;2.258;2023-03-17T07:34:35;13.40;96.90
41058;DHT22;66768;48.884;2.258;2023-03-17T07:37:02;13.40;96.70
41058;DHT22;66768;48.884;2.258;2023-03-17T07:39:29;13.40;96.70
41058;DHT22;66768;48.884;2.258;2023-03-17T07:41:57;13.40;96.60
41058;DHT22;66768;48.884;2.258;2023-03-17T07:44:24;13.50;96.50
41058;DHT22;66768;48.884;2.258;2023-03-17T07:46:52;13.50;96.40
41058;DHT22;66768;48.884;2.258;2023-03-17T07:49:20;13.60;96.50
41058;DHT22;66768;48.884;2.258;2023-03-17T07:51:47;13.60;96.40
41058;DHT22;66768;48.884;2.258;2023-03-17T07:54:14;13.60;96.30
41058;DHT22;66768;48.884;2.258;2023-03-17T07:56:41;13.60;96.20
41058;DHT22;66768;48.884;2.258;2023-03-17T07:59:09;13.60;96.30
41058;DHT22;66768;48.884;2.258;2023-03-17T08:01:36;13.60;96.30
41058;DHT22;66768;48.884;2.258;2023-03-17T08:04:04;13.70;96.20
41058;DHT22;66768;48.884;2.258;2023-03-17T08:06:33;13.70;96.00
41058;DHT22;66768;48.884;2.258;2023-03-17T08:09:00;13.70;95.90
41058;DHT22;66768;48.884;2.258;2023-03-17T08:11:27;13.70;95.70
41058;DHT22;66768;48.884;2.258;2023-03-17T08:13:54;13.70;95.70
41058;DHT22;66768;48.884;2.258;2023-03-17T08:16:21;13.70;95.50
41058;DHT22;66768;48.884;2.258;2023-03-17T08:18:48;13.80;95.60
41058;DHT22;66768;48.884;2.258;2023-03-17T08:21:15;13.80;95.40
41058;DHT22;66768;48.884;2.258;2023-03-17T08:23:43;13.80;95.30
41058;DHT22;66768;48.884;2.258;2023-03-17T08:26:12;13.80;95.10
41058;DHT22;66768;48.884;2.258;2023-03-17T08:28:40;13.80;95.30
41058;DHT22;66768;48.884;2.258;2023-03-17T08:31:08;13.80;94.90
41058;DHT22;66768;48.884;2.258;2023-03-17T08:33:37;13.90;95.00
41058;DHT22;66768;48.884;2.258;2023-03-17T08:36:05;13.90;94.90
41058;DHT22;66768;48.884;2.258;2023-03-17T08:38:34;14.00;94.90
41058;DHT22;66768;48.884;2.258;2023-03-17T08:41:03;14.00;94.80
41058;DHT22;66768;48.884;2.258;2023-03-17T08:43:31;14.00;94.50
41058;DHT22;66768;48.884;2.258;2023-03-17T08:46:01;14.10;94.60
41058;DHT22;66768;48.884;2.258;2023-03-17T08:48:28;14.10;94.50
41058;DHT22;66768;48.884;2.258;2023-03-17T08:50:56;14.20;94.50
41058;DHT22;66768;48.884;2.258;2023-03-17T08:53:23;14.20;94.40
41058;DHT22;66768;48.884;2.258;2023-03-17T08:55:53;14.20;94.60
41058;DHT22;66768;48.884;2.258;2023-03-17T08:58:22;14.30;94.20
41058;DHT22;66768;48.884;2.258;2023-03-17T09:00:49;14.30;94.20
41058;DHT22;66768;48.884;2.258;2023-03-17T09:03:17;14.30;94.20
41058;DHT22;66768;48.884;2.258;2023-03-17T09:05:45;14.40;94.10
41058;DHT22;66768;48.884;2.258;2023-03-17T09:08:12;14.40;93.70
41058;DHT22;66768;48.884;2.258;2023-03-17T09:10:39;14.50;93.70
41058;DHT22;66768;48.884;2.258;2023-03-17T09:13:07;14.60;93.90
41058;DHT22;66768;48.884;2.258;2023-03-17T09:15:36;14.60;93.90
41058;DHT22;66768;48.884;2.258;2023-03-17T09:18:03;14.70;93.70
41058;DHT22;66768;48.884;2.258;2023-03-17T09:20:30;14.80;93.50
41058;DHT22;66768;48.884;2.258;2023-03-17T09:22:57;14.80;93.40
41058;DHT22;66768;48.884;2.258;2023-03-17T09:25:24;14.90;93.20
41058;DHT22;66768;48.884;2.258;2023-03-17T09:27:52;15.00;93.10
41058;DHT22;66768;48.884;2.258;2023-03-17T09:30:18;15.10;92.90
41058;DHT22;66768;48.884;2.258;2023-03-17T09:32:47;15.20;92.80
41058;DHT22;66768;48.884;2.258;2023-03-17T09:35:14;15.20;92.70
41058;DHT22;66768;48.884;2.258;2023-03-17T09:37:41;15.30;92.60
41058;DHT22;66768;48.884;2.258;2023-03-17T09:40:13;15.40;92.50
41058;DHT22;66768;48.884;2.258;2023-03-17T09:42:50;15.50;92.60
41058;DHT22;66768;48.884;2.258;2023-03-17T09:45:26;15.50;92.40
41058;DHT22;66768;48.884;2.258;2023-03-17T09:48:06;15.60;92.10
41058;DHT22;66768;48.884;2.258;2023-03-17T09:50:38;15.70;92.00
41058;DHT22;66768;48.884;2.258;2023-03-17T09:53:15;15.70;91.80
41058;DHT22;66768;48.884;2.258;2023-03-17T09:55:43;15.80;91.60
41058;DHT22;66768;48.884;2.258;2023-03-17T09:58:12;15.90;91.70
41058;DHT22;66768;48.884;2.258;2023-03-17T10:00:40;15.90;91.30
41058;DHT22;66768;48.884;2.258;2023-03-17T10:03:10;16.00;91.20
41058;DHT22;66768;48.884;2.258;2023-03-17T10:05:38;16.10;91.30
41058;DHT22;66768;48.884;2.258;2023-03-17T10:08:10;16.20;91.10
41058;DHT22;66768;48.884;2.258;2023-03-17T10:10:42;16.20;91.00
41058;DHT22;66768;48.884;2.258;2023-03-17T10:13:20;16.30;91.10
41058;DHT22;66768;48.884;2.258;2023-03-17T10:15:50;16.40;91.10
41058;DHT22;66768;48.884;2.258;2023-03-17T10:18:24;16.40;91.10
41058;DHT22;66768;48.884;2.258;2023-03-17T10:20:55;16.50;90.80
41058;DHT22;66768;48.884;2.258;2023-03-17T10:23:26;16.50;90.70
41058;DHT22;66768;48.884;2.258;2023-03-17T10:25:58;16.60;90.50
41058;DHT22;66768;48.884;2.258;2023-03-17T10:28:28;16.60;90.50
41058;DHT22;66768;48.884;2.258;2023-03-17T10:31:01;16.70;90.50
41058;DHT22;66768;48.884;2.258;2023-03-17T10:33:33;16.70;90.50
41058;DHT22;66768;48.884;2.258;2023-03-17T10:36:06;16.70;90.70
41058;DHT22;66768;48.884;2.258;2023-03-17T10:38:34;16.80;90.60
41058;DHT22;66768;48.884;2.258;2023-03-17T10:41:06;16.80;90.00
41058;DHT22;66768;48.884;2.258;2023-03-17T10:43:43;16.80;89.70
41058;DHT22;66768;48.884;2.258;2023-03-17T10:46:17;16.80;89.60
41058;DHT22;66768;48.884;2.258;2023-03-17T10:48:49;16.80;89.30
41058;DHT22;66768;48.884;2.258;2023-03-17T10:51:21;16.80;89.60
41058;DHT22;66768;48.884;2.258;2023-03-17T10:53:52;16.80;90.00
41058;DHT22;66768;48.884;2.258;2023-03-17T10:56:23;16.80;89.90
41058;DHT22;66768;48.884;2.258;2023-03-17T10:58:52;16.80;90.00
41058;DHT22;66768;48.884;2.258;2023-03-17T11:01:26;16.90;90.20
41058;DHT22;66768;48.884;2.258;2023-03-17T11:03:56;16.90;90.40
41058;DHT22;66768;48.884;2.258;2023-03-17T11:06:32;16.90;90.50
41058;DHT22;66768;48.884;2.258;2023-03-17T11:09:06;16.90;90.60
41058;DHT22;66768;48.884;2.258;2023-03-17T11:11:42;16.90;90.50
41058;DHT22;66768;48.884;2.258;2023-03-17T11:14:12;16.90;90.60
41058;DHT22;66768;48.884;2.258;2023-03-17T11:16:47;16.90;90.70
41058;DHT22;66768;48.884;2.258;2023-03-17T11:19:23;17.00;90.70
41058;DHT22;66768;48.884;2.258;2023-03-17T11:21:57;17.00;90.80
41058;DHT22;66768;48.884;2.258;2023-03-17T11:24:29;17.00;90.80
41058;DHT22;66768;48.884;2.258;2023-03-17T11:26:58;17.00;90.80
41058;DHT22;66768;48.884;2.258;2023-03-17T11:29:37;17.00;90.90
41058;DHT22;66768;48.884;2.258;2023-03-17T11:32:18;17.10;90.80
41058;DHT22;66768;48.884;2.258;2023-03-17T11:35:07;17.10;91.20
41058;DHT22;66768;48.884;2.258;2023-03-17T11:37:53;17.00;91.00
41058;DHT22;66768;48.884;2.258;2023-03-17T11:40:28;17.10;91.10
41058;DHT22;66768;48.884;2.258;2023-03-17T11:43:07;17.10;91.40
41058;DHT22;66768;48.884;2.258;2023-03-17T11:45:41;17.10;91.20
41058;DHT22;66768;48.884;2.258;2023-03-17T11:48:22;17.10;91.20
41058;DHT22;66768;48.884;2.258;2023-03-17T11:50:57;17.20;91.70
41058;DHT22;66768;48.884;2.258;2023-03-17T11:53:43;17.20;91.50
41058;DHT22;66768;48.884;2.258;2023-03-17T11:56:17;17.20;91.40
41058;DHT22;66768;48.884;2.258;2023-03-17T11:58:48;17.20;91.40
41058;DHT22;66768;48.884;2.258;2023-03-17T12:01:21;17.30;91.50
41058;DHT22;66768;48.884;2.258;2023-03-17T12:03:57;17.30;91.50
41058;DHT22;66768;48.884;2.258;2023-03-17T12:06:31;17.30;91.80
41058;DHT22;66768;48.884;2.258;2023-03-17T12:09:05;17.30;91.90
41058;DHT22;66768;48.884;2.258;2023-03-17T12:11:39;17.30;92.00
41058;DHT22;66768;48.884;2.258;2023-03-17T12:14:20;17.20;92.00
41058;DHT22;66768;48.884;2.258;2023-03-17T12:16:52;17.20;92.30
41058;DHT22;66768;48.884;2.258;2023-03-17T12:19:23;17.10;92.20
41058;DHT22;66768;48.884;2.258;2023-03-17T12:21:56;17.00;92.20
41058;DHT22;66768;48.884;2.258;2023-03-17T12:24:30;17.00;92.50
41058;DHT22;66768;48.884;2.258;2023-03-17T12:27:02;16.90;92.60
41058;DHT22;66768;48.884;2.258;2023-03-17T12:29:39;16.90;92.80
41058;DHT22;66768;48.884;2.258;2023-03-17T12:32:12;16.80;93.00
41058;DHT22;66768;48.884;2.258;2023-03-17T12:34:45;16.80;93.00
41058;DHT22;66768;48.884;2.258;2023-03-17T12:37:17;16.80;93.00
41058;DHT22;66768;48.884;2.258;2023-03-17T12:39:50;16.80;93.00
41058;DHT22;66768;48.884;2.258;2023-03-17T12:42:31;16.70;93.10
41058;DHT22;66768;48.884;2.258;2023-03-17T12:45:27;16.70;93.20
41058;DHT22;66768;48.884;2.258;2023-03-17T12:48:20;16.60;93.30
41058;DHT22;66768;48.884;2.258;2023-03-17T12:51:16;16.60;93.50
41058;DHT22;66768;48.884;2.258;2023-03-17T12:53:50;16.60;93.80
41058;DHT22;66768;48.884;2.258;2023-03-17T12:56:19;16.60;93.70
41058;DHT22;66768;48.884;2.258;2023-03-17T12:58:48;16.50;93.70
41058;DHT22;66768;48.884;2.258;2023-03-17T13:01:24;16.50;93.80
41058;DHT22;66768;48.884;2.258;2023-03-17T13:04:02;16.60;93.90
41058;DHT22;66768;48.884;2.258;2023-03-17T13:06:36;16.60;94.00
41058;DHT22;66768;48.884;2.258;2023-03-17T13:09:28;16.60;94.20
41058;DHT22;66768;48.884;2.258;2023-03-17T13:11:59;16.60;94.20
41058;DHT22;66768;48.884;2.258;2023-03-17T13:14:39;16.60;94.40
41058;DHT22;66768;48.884;2.258;2023-03-17T13:17:31;16.60;94.50
41058;DHT22;66768;48.884;2.258;2023-03-17T13:20:11;16.60;94.20
41058;DHT22;66768;48.884;2.258;2023-03-17T13:22:59;16.60;94.20
41058;DHT22;66768;48.884;2.258;2023-03-17T13:25:30;16.60;94.50
41058;DHT22;66768;48.884;2.258;2023-03-17T13:28:23;16.60;94.60
41058;DHT22;66768;48.884;2.258;2023-03-17T13:31:07;16.60;94.50
41058;DHT22;66768;48.884;2.258;2023-03-17T13:33:39;16.60;94.60
41058;DHT22;66768;48.884;2.258;2023-03-17T13:36:24;16.60;94.70
41058;DHT22;66768;48.884;2.258;2023-03-17T13:41:55;16.50;94.90
41058;DHT22;66768;48.884;2.258;2023-03-17T13:44:51;16.60;95.10
41058;DHT22;66768;48.884;2.258;2023-03-17T13:47:31;16.60;95.10
41058;DHT22;66768;48.884;2.258;2023-03-17T13:50:03;16.60;95.20
41058;DHT22;66768;48.884;2.258;2023-03-17T13:52:38;16.60;95.20
41058;DHT22;66768;48.884;2.258;2023-03-17T13:55:31;16.60;95.30
41058;DHT22;66768;48.884;2.258;2023-03-17T13:58:19;16.60;95.40
41058;DHT22;66768;48.884;2.258;2023-03-17T14:00:55;16.70;95.50
41058;DHT22;66768;48.884;2.258;2023-03-17T14:03:29;16.70;95.60
41058;DHT22;66768;48.884;2.258;2023-03-17T14:06:02;16.80;95.60
41058;DHT22;66768;48.884;2.258;2023-03-17T14:08:32;16.80;95.50
41058;DHT22;66768;48.884;2.258;2023-03-17T14:11:02;16.80;95.60
41058;DHT22;66768;48.884;2.258;2023-03-17T14:13:36;16.70;95.70
41058;DHT22;66768;48.884;2.258;2023-03-17T14:16:11;16.70;95.90
41058;DHT22;66768;48.884;2.258;2023-03-17T14:18:43;16.70;95.90
41058;DHT22;66768;48.884;2.258;2023-03-17T14:21:20;16.60;96.20
41058;DHT22;66768;48.884;2.258;2023-03-17T14:23:53;16.60;96.30
41058;DHT22;66768;48.884;2.258;2023-03-17T14:26:22;16.60;96.30
41058;DHT22;66768;48.884;2.258;2023-03-17T14:28:51;16.60;96.50
41058;DHT22;66768;48.884;2.258;2023-03-17T14:31:21;16.60;96.60
41058;DHT22;66768;48.884;2.258;2023-03-17T14:33:51;16.60;96.70
41058;DHT22;66768;48.884;2.258;2023-03-17T14:36:20;16.60;96.80
41058;DHT22;66768;48.884;2.258;2023-03-17T14:38:49;16.60;96.90
41058;DHT22;66768;48.884;2.258;2023-03-17T14:41:18;16.60;97.10
41058;DHT22;66768;48.884;2.258;2023-03-17T14:43:45;16.60;97.10
41058;DHT22;66768;48.884;2.258;2023-03-17T14:46:15;16.60;97.20
41058;DHT22;66768;48.884;2.258;2023-03-17T14:48:46;16.60;97.30
41058;DHT22;66768;48.884;2.258;2023-03-17T14:51:23;16.60;97.40
41058;DHT22;66768;48.884;2.258;2023-03-17T14:53:52;16.60;97.40
41058;DHT22;66768;48.884;2.258;2023-03-17T14:56:21;16.60;97.50
41058;DHT22;66768;48.884;2.258;2023-03-17T14:58:50;16.50;97.80
41058;DHT22;66768;48.884;2.258;2023-03-17T15:01:22;16.50;97.80
41058;DHT22;66768;48.884;2.258;2023-03-17T15:04:05;16.50;97.90
41058;DHT22;66768;48.884;2.258;2023-03-17T15:06:33;16.50;98.00
41058;DHT22;66768;48.884;2.258;2023-03-17T15:09:02;16.50;98.00
41058;DHT22;66768;48.884;2.258;2023-03-17T15:11:36;16.50;98.10
41058;DHT22;66768;48.884;2.258;2023-03-17T15:14:09;16.40;98.30
41058;DHT22;66768;48.884;2.258;2023-03-17T15:16:40;16.50;98.30
41058;DHT22;66768;48.884;2.258;2023-03-17T15:19:18;16.40;98.20
41058;DHT22;66768;48.884;2.258;2023-03-17T15:21:46;16.50;98.30
41058;DHT22;66768;48.884;2.258;2023-03-17T15:24:36;16.50;98.40
41058;DHT22;66768;48.884;2.258;2023-03-17T15:27:05;16.40;98.60
41058;DHT22;66768;48.884;2.258;2023-03-17T15:29:32;16.40;98.70
41058;DHT22;66768;48.884;2.258;2023-03-17T15:32:09;16.40;98.90
41058;DHT22;66768;48.884;2.258;2023-03-17T15:34:36;16.30;98.90
41058;DHT22;66768;48.884;2.258;2023-03-17T15:37:10;16.30;99.00
41058;DHT22;66768;48.884;2.258;2023-03-17T15:39:39;16.30;99.10
41058;DHT22;66768;48.884;2.258;2023-03-17T15:42:06;16.40;99.20
41058;DHT22;66768;48.884;2.258;2023-03-17T15:44:33;16.30;99.20
41058;DHT22;66768;48.884;2.258;2023-03-17T15:47:01;16.30;99.20
41058;DHT22;66768;48.884;2.258;2023-03-17T15:49:31;16.30;99.30
41058;DHT22;66768;48.884;2.258;2023-03-17T15:51:59;16.30;99.30